Rockford, MI

4:06 AM EST on March 05, 2015 (GMT -0500)
Boxen | Change Station
CLOSE
Current Station
Personal Weather Station
Location: Rockford, MI
Elevation: 774 ft
Nearby Weather Stations

Elev 774 ft 43.09 °N, 85.57 °W | Updated 7 seconds ago

Partly Cloudy
Partly Cloudy
-0.8 °F
Feels Like -1 °F
N
0.0
Wind Variable Wind from North
Gusts 0.0 mph

Today
High -- | Low -- °F
--% Chance of Precip.
Yesterday
High -- | Low -- °F
Precip. -- in
7:12 AM 6:36 PM
Full, 100% visible
Pressure 30.31 in
Visibility 10.0 miles
Clouds Scattered Clouds 2500 ft
Windchill -1 °F
Dew Point -12 °F
Humidity 56%
Rainfall in
Snow Depth Not available.
UV 0 out of 12
Pollen .30 out of 12
Air Quality Not available.
Flu Activity Not available.
METAR KGRR 050853Z AUTO 03005KT 10SM SCT025 M14/M19 A3031

More Conditions Fewer Conditions

Pressure 30.31 in
Visibility 10.0 miles
Clouds Scattered Clouds 2500 ft
Windchill -1 °F
Dew Point -12 °F
Humidity 56%
Rainfall in
Snow Depth Not available.
UV 0 out of 12
Pollen .30 out of 12
Air Quality Not available.
Flu Activity Not available.
METAR KGRR 050853Z AUTO 03005KT 10SM SCT025 M14/M19 A3031

More Conditions Fewer Conditions

10-Day Weather Forecast

Almanac

Astronomy

Mar. 05, 2015 Rise Set
Actual Time
Civil Twilight
Nautical Twilight
Astronomical Twilight
Moon
Length of Visible Light
Length of Day
Tomorrow will be .
, % of the Moon is Illuminated

Today's Extremes

State Highs State Lows

Community

WunderPhotos

Upload Photos

1,802,704 photos uploaded!

WunderBlogs® & News

Nearby

Air Quality

  Air Quality AQ Index Pollutant
Not available.

Snow Depth

Station Depth Elevation

Earthquake Activity

City Distance Mag. Time & Date
Minimum magnitude displayed is 2.5.

Coastal Water Temperatures

Place Temperature

Nearby Weather Stations